createdAt,value
2018-09-02T00:01:01.439Z,0
2018-09-02T00:02:17.342Z,0
2018-09-02T00:03:33.387Z,0
2018-09-02T00:04:49.403Z,0
2018-09-02T00:06:05.331Z,0
2018-09-02T00:07:21.450Z,0
2018-09-02T00:08:37.509Z,0
2018-09-02T00:09:53.421Z,0
2018-09-02T00:11:09.315Z,0
2018-09-02T00:12:25.220Z,0
2018-09-02T00:13:41.272Z,0
2018-09-02T00:14:57.254Z,0
2018-09-02T00:16:13.170Z,0
2018-09-02T00:17:29.142Z,0
2018-09-02T00:18:45.136Z,0
2018-09-02T00:20:01.071Z,0
2018-09-02T00:21:17.015Z,0
2018-09-02T00:22:32.902Z,0
2018-09-02T00:23:48.813Z,0
2018-09-02T00:25:04.749Z,0
2018-09-02T00:26:20.751Z,0
2018-09-02T00:27:36.864Z,0
2018-09-02T00:30:33.750Z,0
2018-09-02T00:31:49.651Z,0
2018-09-02T00:33:05.727Z,0
2018-09-02T00:34:21.602Z,0
2018-09-02T00:35:37.513Z,0
2018-09-02T00:36:53.594Z,0
2018-09-02T00:38:09.547Z,0
2018-09-02T00:39:25.590Z,0
2018-09-02T00:40:41.516Z,0
2018-09-02T00:41:57.424Z,0
2018-09-02T00:43:13.371Z,0
2018-09-02T00:44:29.386Z,0
2018-09-02T00:45:45.328Z,0
2018-09-02T00:47:01.289Z,0
2018-09-02T00:48:17.338Z,0
2018-09-02T00:49:33.375Z,0
2018-09-02T00:50:49.288Z,0
2018-09-02T00:52:05.261Z,0
2018-09-02T00:53:21.187Z,0
2018-09-02T00:54:37.111Z,0
2018-09-02T00:55:53.021Z,0
2018-09-02T00:57:08.965Z,0
2018-09-02T00:58:25.030Z,0
2018-09-02T00:59:40.949Z,0
2018-09-02T01:00:56.970Z,0
2018-09-02T01:02:13.032Z,0
2018-09-02T01:03:29.098Z,0
2018-09-02T01:06:25.714Z,0
2018-09-02T01:07:41.746Z,0
2018-09-02T01:08:57.743Z,0
2018-09-02T01:10:13.636Z,0
2018-09-02T01:11:29.594Z,0
2018-09-02T01:14:26.281Z,0
2018-09-02T01:15:42.272Z,0
2018-09-02T01:16:58.164Z,0
2018-09-02T01:18:14.129Z,0
2018-09-02T01:19:30.182Z,0
2018-09-02T01:20:46.237Z,0
2018-09-02T01:22:02.140Z,0
2018-09-02T01:23:18.050Z,0
2018-09-02T01:24:34.145Z,0
2018-09-02T01:25:50.136Z,0
2018-09-02T01:27:06.093Z,0
2018-09-02T01:28:22.016Z,0
2018-09-02T01:29:37.996Z,0
2018-09-02T01:30:53.918Z,0
2018-09-02T01:32:09.789Z,0
2018-09-02T01:33:25.829Z,0
2018-09-02T01:34:41.755Z,0
2018-09-02T01:35:57.667Z,0
2018-09-02T01:37:13.565Z,0
2018-09-02T01:38:29.516Z,0
2018-09-02T01:39:45.430Z,0
2018-09-02T01:41:01.428Z,0
2018-09-02T01:42:17.405Z,0
2018-09-02T01:43:33.417Z,0
2018-09-02T01:44:49.344Z,0
2018-09-02T01:46:05.280Z,0
2018-09-02T01:47:21.160Z,0
2018-09-02T01:48:37.074Z,0
2018-09-02T01:49:52.984Z,0
2018-09-02T01:51:08.972Z,0
2018-09-02T01:52:24.877Z,0
2018-09-02T01:53:40.941Z,0
2018-09-02T01:54:56.895Z,0
2018-09-02T01:56:12.850Z,0
2018-09-02T01:57:28.756Z,0
2018-09-02T01:58:44.765Z,0
2018-09-02T02:00:00.655Z,0
2018-09-02T02:01:16.560Z,0
2018-09-02T02:02:32.472Z,0
2018-09-02T02:03:48.416Z,0
2018-09-02T02:05:04.297Z,0
2018-09-02T02:06:20.335Z,0
2018-09-02T02:07:36.271Z,0
2018-09-02T02:08:52.332Z,0
2018-09-02T02:10:08.222Z,0
2018-09-02T02:11:24.135Z,0
2018-09-02T02:12:40.113Z,0
2018-09-02T02:13:56.237Z,0
2018-09-02T02:15:12.282Z,0
2018-09-02T02:16:28.165Z,0
2018-09-02T02:17:44.093Z,0
2018-09-02T02:18:59.973Z,0
2018-09-02T02:20:15.896Z,0
2018-09-02T02:21:31.781Z,0
2018-09-02T02:22:47.674Z,0
2018-09-02T02:24:03.567Z,0
2018-09-02T02:25:19.585Z,0
2018-09-02T02:26:35.516Z,0
2018-09-02T02:27:51.532Z,0
2018-09-02T02:29:07.418Z,0
2018-09-02T02:30:23.455Z,0
2018-09-02T02:31:39.452Z,0
2018-09-02T02:32:55.334Z,0
2018-09-02T02:34:11.239Z,0
2018-09-02T02:35:27.235Z,0
2018-09-02T02:36:43.157Z,0
2018-09-02T02:37:59.085Z,0
2018-09-02T02:39:15.147Z,0
2018-09-02T02:40:31.060Z,0
2018-09-02T02:41:46.962Z,0
2018-09-02T02:43:02.922Z,0
2018-09-02T02:44:18.937Z,0
2018-09-02T02:45:34.839Z,0
2018-09-02T02:46:50.771Z,0
2018-09-02T02:48:06.827Z,0
2018-09-02T02:49:22.784Z,0
2018-09-02T02:50:38.708Z,0
2018-09-02T02:51:54.607Z,0
2018-09-02T02:53:10.520Z,0
2018-09-02T02:54:26.462Z,0
2018-09-02T02:55:42.391Z,0
2018-09-02T02:56:58.366Z,0
2018-09-02T02:58:14.651Z,0
2018-09-02T02:59:30.622Z,0
2018-09-02T03:00:46.513Z,0
2018-09-02T03:02:02.436Z,0
2018-09-02T03:03:18.372Z,0
2018-09-02T03:04:34.374Z,0
2018-09-02T03:05:50.255Z,0
2018-09-02T03:07:06.273Z,0
2018-09-02T03:08:22.252Z,0
2018-09-02T03:09:38.217Z,0
2018-09-02T03:10:54.172Z,0
2018-09-02T03:12:10.144Z,0
2018-09-02T03:13:26.125Z,0
2018-09-02T03:14:42.071Z,0
2018-09-02T03:15:57.980Z,0
2018-09-02T03:17:13.861Z,0
2018-09-02T03:18:29.769Z,0
2018-09-02T03:19:45.753Z,0
2018-09-02T03:21:01.639Z,0
2018-09-02T03:22:17.544Z,0
2018-09-02T03:23:33.536Z,0
2018-09-02T03:24:49.591Z,0
2018-09-02T03:26:05.609Z,0
2018-09-02T03:27:21.511Z,0
2018-09-02T03:28:37.497Z,0
2018-09-02T03:29:53.492Z,0
2018-09-02T03:31:09.420Z,0
2018-09-02T03:32:25.360Z,0
2018-09-02T03:33:41.290Z,0
2018-09-02T03:34:57.389Z,0
2018-09-02T03:36:13.298Z,0
2018-09-02T03:37:29.172Z,0
2018-09-02T03:38:45.228Z,0
2018-09-02T03:40:01.389Z,0
2018-09-02T03:41:17.327Z,0
2018-09-02T03:42:33.240Z,0
2018-09-02T03:43:49.233Z,0
2018-09-02T03:45:05.132Z,0
2018-09-02T03:46:21.023Z,0
2018-09-02T03:47:36.950Z,0
2018-09-02T03:48:52.882Z,0
2018-09-02T03:50:08.983Z,0
2018-09-02T03:51:24.876Z,0
2018-09-02T03:52:40.771Z,0
2018-09-02T03:53:56.672Z,0
2018-09-02T03:55:12.702Z,0
2018-09-02T03:56:28.581Z,0
2018-09-02T03:57:44.580Z,0
2018-09-02T03:59:00.606Z,0
2018-09-02T04:00:16.585Z,0
2018-09-02T04:01:32.479Z,0
2018-09-02T04:02:48.503Z,0
2018-09-02T04:04:04.396Z,0
2018-09-02T04:05:20.302Z,0
2018-09-02T04:06:36.237Z,0
2018-09-02T04:07:52.262Z,0
2018-09-02T04:09:08.243Z,0
2018-09-02T04:10:24.164Z,0
2018-09-02T04:11:40.259Z,0
2018-09-02T04:12:56.274Z,0
2018-09-02T04:14:12.217Z,0
2018-09-02T04:15:28.088Z,0
2018-09-02T04:16:44.030Z,0
2018-09-02T04:18:00.393Z,0
2018-09-02T04:19:16.271Z,0
2018-09-02T04:20:32.237Z,0
2018-09-02T04:21:48.142Z,0
2018-09-02T04:23:04.091Z,0
2018-09-02T04:24:20.011Z,0
2018-09-02T04:25:35.944Z,0
2018-09-02T04:26:51.903Z,0
2018-09-02T04:28:07.980Z,0
2018-09-02T04:29:23.979Z,0
2018-09-02T04:30:39.884Z,0
2018-09-02T04:31:55.750Z,0
2018-09-02T04:33:11.662Z,0
2018-09-02T04:34:27.570Z,0
2018-09-02T04:37:24.121Z,0
2018-09-02T04:38:40.003Z,0
2018-09-02T04:39:55.907Z,0
2018-09-02T04:41:11.809Z,0
2018-09-02T04:42:27.870Z,0
2018-09-02T04:43:43.754Z,0
2018-09-02T04:44:59.794Z,0
2018-09-02T04:46:15.832Z,0
2018-09-02T04:47:31.776Z,0
2018-09-02T04:48:47.650Z,0
2018-09-02T04:51:44.209Z,0
2018-09-02T04:53:00.258Z,0
2018-09-02T04:54:16.224Z,0
2018-09-02T04:55:32.210Z,0
2018-09-02T04:56:48.138Z,0
2018-09-02T04:58:04.043Z,0
2018-09-02T04:59:20.005Z,0
2018-09-02T05:00:36.034Z,0
2018-09-02T05:01:52.086Z,0
2018-09-02T05:03:08.050Z,0
2018-09-02T05:04:24.122Z,0
2018-09-02T05:05:40.272Z,0
2018-09-02T05:06:56.337Z,0
2018-09-02T05:08:12.315Z,0
2018-09-02T05:09:28.395Z,0
2018-09-02T05:10:44.394Z,0
2018-09-02T05:12:00.285Z,0
2018-09-02T05:13:16.292Z,0
2018-09-02T05:14:32.253Z,0
2018-09-02T05:15:48.356Z,0
2018-09-02T05:17:04.409Z,0
2018-09-02T05:18:20.459Z,0
2018-09-02T05:19:36.516Z,0
2018-09-02T05:20:52.435Z,0
2018-09-02T05:22:08.338Z,0
2018-09-02T05:23:24.243Z,0
2018-09-02T05:24:40.241Z,0
2018-09-02T05:25:56.235Z,0
2018-09-02T05:27:12.142Z,0
2018-09-02T05:28:28.041Z,0
2018-09-02T05:29:43.962Z,0
2018-09-02T05:30:59.884Z,0
2018-09-02T05:32:15.833Z,0
2018-09-02T05:33:31.801Z,0
2018-09-02T05:36:29.619Z,5.625
2018-09-02T05:37:45.545Z,5.625
2018-09-02T05:39:01.468Z,0
2018-09-02T05:40:17.430Z,0
2018-09-02T05:41:33.334Z,0
2018-09-02T05:42:49.554Z,0
2018-09-02T05:44:05.677Z,0
2018-09-02T05:45:21.686Z,0
2018-09-02T05:46:37.569Z,0
2018-09-02T05:47:53.494Z,0
2018-09-02T05:49:10.354Z,0
2018-09-02T05:50:26.270Z,0
2018-09-02T05:51:42.250Z,0
2018-09-02T05:52:58.336Z,0
2018-09-02T05:54:14.281Z,0
2018-09-02T05:55:30.194Z,0
2018-09-02T05:56:46.212Z,0
2018-09-02T05:58:02.122Z,0
2018-09-02T05:59:18.032Z,0
2018-09-02T06:00:33.959Z,0
2018-09-02T06:01:50.000Z,0
2018-09-02T06:03:05.989Z,0
2018-09-02T06:04:21.931Z,0
2018-09-02T06:05:37.993Z,0
2018-09-02T06:06:55.134Z,0
2018-09-02T06:08:11.136Z,0
2018-09-02T06:09:27.095Z,0
2018-09-02T06:10:42.991Z,0
2018-09-02T06:11:59.035Z,5.625
2018-09-02T06:13:15.002Z,5.625
2018-09-02T06:14:30.940Z,5.625
2018-09-02T06:15:46.847Z,5.625
2018-09-02T06:18:43.580Z,5.625
2018-09-02T06:19:59.583Z,5.625
2018-09-02T06:21:15.461Z,5.625
2018-09-02T06:22:31.418Z,5.625
2018-09-02T06:23:47.349Z,5.625
2018-09-02T06:25:03.253Z,5.625
2018-09-02T06:26:19.155Z,5.625
2018-09-02T06:27:35.090Z,5.625
2018-09-02T06:28:50.971Z,5.625
2018-09-02T06:30:06.943Z,5.625
2018-09-02T06:31:22.846Z,5.625
2018-09-02T06:32:38.900Z,5.625
2018-09-02T06:33:54.753Z,5.625
2018-09-02T06:35:10.722Z,11.25
2018-09-02T06:36:26.764Z,11.25
2018-09-02T06:37:42.781Z,11.25
2018-09-02T06:38:58.709Z,11.25
2018-09-02T06:40:14.590Z,11.25
2018-09-02T06:43:11.199Z,11.25
2018-09-02T06:44:27.139Z,11.25
2018-09-02T06:45:43.167Z,16.875
2018-09-02T06:46:59.217Z,16.875
2018-09-02T06:48:15.368Z,16.875
2018-09-02T06:49:31.321Z,16.875
2018-09-02T06:52:29.055Z,16.875
2018-09-02T06:53:45.145Z,16.875
2018-09-02T06:57:58.151Z,22.5
2018-09-02T06:59:14.346Z,22.5
2018-09-02T07:00:30.437Z,22.5
2018-09-02T07:01:46.433Z,22.5
2018-09-02T07:03:02.402Z,22.5
2018-09-02T07:04:18.505Z,22.5
2018-09-02T07:05:34.464Z,22.5
2018-09-02T07:06:50.557Z,22.5
2018-09-02T07:08:06.433Z,22.5
2018-09-02T07:09:22.528Z,22.5
2018-09-02T07:10:38.534Z,22.5
2018-09-02T07:11:54.506Z,22.5
2018-09-02T07:13:10.466Z,22.5
2018-09-02T07:14:26.457Z,22.5
2018-09-02T07:15:42.306Z,22.5
2018-09-02T07:16:58.238Z,22.5
2018-09-02T07:18:14.143Z,22.5
2018-09-02T07:19:30.140Z,22.5
2018-09-02T07:20:46.201Z,22.5
2018-09-02T07:22:02.115Z,16.875
2018-09-02T07:23:19.028Z,16.875
2018-09-02T07:24:35.050Z,16.875
2018-09-02T07:25:51.993Z,16.875
2018-09-02T07:27:07.966Z,16.875
2018-09-02T07:28:23.988Z,16.875
2018-09-02T07:29:40.033Z,16.875
2018-09-02T07:30:56.029Z,16.875
2018-09-02T07:32:11.941Z,16.875
2018-09-02T07:33:27.880Z,22.5
2018-09-02T07:34:43.787Z,22.5
2018-09-02T07:35:59.732Z,16.875
2018-09-02T07:37:15.760Z,16.875
2018-09-02T07:38:31.728Z,16.875
2018-09-02T07:39:47.784Z,16.875
2018-09-02T07:41:03.749Z,16.875
2018-09-02T07:42:19.775Z,16.875
2018-09-02T07:43:35.827Z,16.875
2018-09-02T07:44:51.826Z,16.875
2018-09-02T07:46:07.793Z,16.875
2018-09-02T07:47:23.718Z,16.875
2018-09-02T07:48:39.742Z,16.875
2018-09-02T07:49:55.930Z,22.5
2018-09-02T07:51:12.001Z,16.875
2018-09-02T07:52:28.047Z,22.5
2018-09-02T07:53:44.046Z,22.5
2018-09-02T07:55:00.012Z,22.5
2018-09-02T07:56:16.081Z,22.5
2018-09-02T07:57:32.037Z,22.5
2018-09-02T07:58:47.993Z,22.5
2018-09-02T08:00:04.044Z,22.5
2018-09-02T08:01:20.069Z,22.5
2018-09-02T08:02:36.118Z,22.5
2018-09-02T08:03:53.008Z,28.125
2018-09-02T08:05:08.949Z,28.125
2018-09-02T08:06:24.944Z,28.125
2018-09-02T08:07:40.891Z,28.125
2018-09-02T08:08:57.002Z,22.5
2018-09-02T08:10:12.949Z,22.5
2018-09-02T08:13:09.777Z,22.5
2018-09-02T08:14:25.863Z,22.5
2018-09-02T08:15:42.015Z,28.125
2018-09-02T08:16:58.177Z,33.75
2018-09-02T08:18:14.342Z,39.375
2018-09-02T08:19:30.426Z,45
2018-09-02T08:20:46.428Z,50.625
2018-09-02T08:22:03.064Z,56.25
2018-09-02T08:23:19.160Z,61.875
2018-09-02T08:24:36.057Z,61.875
2018-09-02T08:25:52.249Z,73.125
2018-09-02T08:27:08.389Z,78.75
2018-09-02T08:28:24.467Z,78.75
2018-09-02T08:29:40.447Z,73.125
2018-09-02T08:30:56.521Z,78.75
2018-09-02T08:32:12.462Z,90
2018-09-02T08:33:28.455Z,101.25
2018-09-02T08:34:44.578Z,112.5
2018-09-02T08:36:00.755Z,112.5
2018-09-02T08:37:16.781Z,95.625
2018-09-02T08:38:32.744Z,95.625
2018-09-02T08:39:48.686Z,101.25
2018-09-02T08:41:04.697Z,101.25
2018-09-02T08:42:20.659Z,101.25
2018-09-02T08:43:36.622Z,90
2018-09-02T08:44:52.785Z,84.375
2018-09-02T08:46:08.842Z,73.125
2018-09-02T08:47:24.806Z,67.5
2018-09-02T08:48:40.853Z,67.5
2018-09-02T08:49:56.873Z,67.5
2018-09-02T08:51:12.900Z,67.5
2018-09-02T08:52:28.840Z,78.75
2018-09-02T08:53:44.817Z,78.75
2018-09-02T08:55:00.800Z,78.75
2018-09-02T08:56:16.780Z,73.125
2018-09-02T08:57:32.729Z,61.875
2018-09-02T08:58:49.055Z,61.875
2018-09-02T09:00:05.028Z,61.875
2018-09-02T09:01:21.179Z,61.875
2018-09-02T09:02:37.124Z,61.875
2018-09-02T09:03:53.287Z,67.5
2018-09-02T09:05:09.246Z,78.75
2018-09-02T09:06:25.179Z,78.75
2018-09-02T09:07:41.387Z,78.75
2018-09-02T09:08:57.609Z,84.375
2018-09-02T09:10:13.354Z,95.625
2018-09-02T09:11:29.327Z,101.25
2018-09-02T09:12:45.460Z,106.875
2018-09-02T09:14:01.451Z,112.5
2018-09-02T09:15:17.485Z,112.5
2018-09-02T09:16:33.549Z,118.125
2018-09-02T09:17:49.612Z,118.125
2018-09-02T09:19:05.602Z,118.125
2018-09-02T09:20:21.576Z,112.5
2018-09-02T09:21:37.852Z,101.25
2018-09-02T09:22:53.672Z,95.625
2018-09-02T09:24:09.739Z,73.125
2018-09-02T09:25:25.646Z,67.5
2018-09-02T09:26:41.715Z,56.25
2018-09-02T09:27:57.852Z,61.875
2018-09-02T09:29:13.945Z,61.875
2018-09-02T09:30:30.037Z,56.25
2018-09-02T09:31:46.005Z,45
2018-09-02T09:33:01.946Z,45
2018-09-02T09:34:17.951Z,45
2018-09-02T09:35:33.894Z,45
2018-09-02T09:36:50.013Z,45
2018-09-02T09:38:06.110Z,50.625
2018-09-02T09:39:22.214Z,56.25
2018-09-02T09:42:18.600Z,56.25
2018-09-02T09:43:34.531Z,67.5
2018-09-02T09:44:50.504Z,67.5
2018-09-02T09:46:06.517Z,67.5
2018-09-02T09:47:22.502Z,78.75
2018-09-02T09:48:38.520Z,73.125
2018-09-02T09:49:54.586Z,67.5
2018-09-02T09:51:10.937Z,73.125
2018-09-02T09:52:26.976Z,78.75
2018-09-02T09:53:42.942Z,90
2018-09-02T09:54:58.972Z,95.625
2018-09-02T09:56:14.980Z,90
2018-09-02T09:57:31.056Z,90
2018-09-02T09:58:47.027Z,84.375
2018-09-02T10:00:02.995Z,67.5
2018-09-02T10:01:18.951Z,61.875
2018-09-02T10:02:35.301Z,61.875
2018-09-02T10:03:51.774Z,61.875
2018-09-02T10:05:08.301Z,56.25
2018-09-02T10:06:24.359Z,45
2018-09-02T10:07:40.404Z,45
2018-09-02T10:08:56.401Z,45
2018-09-02T10:10:12.442Z,39.375
2018-09-02T10:11:28.591Z,39.375
2018-09-02T10:12:44.677Z,39.375
2018-09-02T10:14:00.828Z,39.375
2018-09-02T10:15:16.871Z,39.375
2018-09-02T10:16:32.932Z,33.75
2018-09-02T10:17:48.916Z,28.125
2018-09-02T10:19:04.992Z,28.125
2018-09-02T10:20:21.050Z,22.5
2018-09-02T10:21:37.211Z,22.5
2018-09-02T10:22:53.226Z,22.5
2018-09-02T10:24:09.217Z,16.875
2018-09-02T10:25:25.273Z,16.875
2018-09-02T10:26:41.342Z,16.875
2018-09-02T10:27:57.422Z,16.875
2018-09-02T10:29:13.413Z,22.5
2018-09-02T10:30:29.504Z,22.5
2018-09-02T10:31:45.484Z,28.125
2018-09-02T10:33:01.537Z,28.125
2018-09-02T10:34:17.639Z,28.125
2018-09-02T10:35:33.769Z,33.75
2018-09-02T10:36:49.707Z,39.375
2018-09-02T10:38:05.653Z,39.375
2018-09-02T10:39:21.743Z,39.375
2018-09-02T10:40:37.754Z,39.375
2018-09-02T10:41:53.851Z,45
2018-09-02T10:43:09.862Z,45
2018-09-02T10:44:25.905Z,45
2018-09-02T10:45:41.967Z,50.625
2018-09-02T10:46:57.913Z,39.375
2018-09-02T10:48:13.977Z,39.375
2018-09-02T10:49:30.073Z,45
2018-09-02T10:50:46.180Z,39.375
2018-09-02T10:52:02.188Z,45
2018-09-02T10:53:18.294Z,45
2018-09-02T10:54:34.263Z,50.625
2018-09-02T10:55:50.187Z,56.25
2018-09-02T10:57:06.133Z,56.25
2018-09-02T10:58:22.212Z,56.25
2018-09-02T10:59:38.346Z,56.25
2018-09-02T11:00:54.374Z,56.25
2018-09-02T11:02:10.352Z,56.25
2018-09-02T11:03:26.315Z,56.25
2018-09-02T11:04:43.483Z,56.25
2018-09-02T11:05:59.691Z,61.875
2018-09-02T11:07:15.737Z,67.5
2018-09-02T11:08:31.934Z,73.125
2018-09-02T11:09:48.066Z,78.75
2018-09-02T11:11:04.007Z,84.375
2018-09-02T11:12:20.015Z,84.375
2018-09-02T11:13:36.233Z,84.375
2018-09-02T11:16:32.979Z,95.625
2018-09-02T11:17:49.048Z,112.5
2018-09-02T11:19:05.116Z,118.125
2018-09-02T11:20:21.024Z,123.75
2018-09-02T11:21:37.019Z,123.75
2018-09-02T11:22:52.972Z,112.5
2018-09-02T11:24:09.155Z,101.25
2018-09-02T11:25:25.106Z,101.25
2018-09-02T11:26:41.232Z,106.875
2018-09-02T11:27:57.341Z,112.5
2018-09-02T11:29:13.463Z,118.125
2018-09-02T11:30:29.567Z,112.5
2018-09-02T11:31:45.662Z,112.5
2018-09-02T11:33:02.962Z,118.125
2018-09-02T11:34:19.028Z,123.75
2018-09-02T11:35:34.972Z,129.375
2018-09-02T11:38:31.660Z,146.25
2018-09-02T11:39:47.696Z,140.625
2018-09-02T11:41:03.813Z,129.375
2018-09-02T11:42:19.787Z,123.75
2018-09-02T11:43:35.700Z,123.75
2018-09-02T11:44:51.781Z,90
2018-09-02T11:46:07.795Z,73.125
2018-09-02T11:47:23.768Z,61.875
2018-09-02T11:48:39.727Z,56.25
2018-09-02T11:49:56.753Z,50.625
2018-09-02T11:51:12.821Z,45
2018-09-02T11:52:28.881Z,45
2018-09-02T11:53:44.879Z,39.375
2018-09-02T11:55:00.976Z,39.375
2018-09-02T11:56:17.057Z,39.375
2018-09-02T11:57:33.191Z,39.375
2018-09-02T11:58:49.233Z,39.375
2018-09-02T12:00:05.224Z,39.375
2018-09-02T12:01:21.229Z,39.375
2018-09-02T12:02:37.294Z,39.375
2018-09-02T12:03:53.430Z,39.375
2018-09-02T12:05:09.453Z,39.375
2018-09-02T12:11:28.684Z,39.375
2018-09-02T12:12:44.658Z,39.375
2018-09-02T12:14:00.688Z,39.375
2018-09-02T12:15:16.610Z,33.75
2018-09-02T12:16:32.692Z,33.75
2018-09-02T12:20:45.470Z,33.75
2018-09-02T12:22:01.503Z,33.75
2018-09-02T12:24:58.080Z,33.75
2018-09-02T12:26:14.161Z,33.75
2018-09-02T12:27:30.215Z,33.75
2018-09-02T12:30:26.647Z,28.125
2018-09-02T12:31:42.709Z,28.125
2018-09-02T12:32:58.730Z,28.125
2018-09-02T12:34:14.772Z,33.75
2018-09-02T12:35:30.692Z,33.75
2018-09-02T12:36:46.773Z,33.75
2018-09-02T12:38:02.802Z,28.125
2018-09-02T12:39:18.877Z,28.125
2018-09-02T12:40:34.874Z,28.125
2018-09-02T12:41:50.837Z,22.5
2018-09-02T12:43:06.915Z,22.5
2018-09-02T12:44:23.006Z,22.5
2018-09-02T12:45:39.086Z,22.5
2018-09-02T12:46:56.798Z,22.5
2018-09-02T12:48:12.973Z,16.875
2018-09-02T12:49:28.926Z,16.875
2018-09-02T12:50:45.002Z,16.875
2018-09-02T12:52:00.936Z,16.875
2018-09-02T12:53:17.593Z,16.875
2018-09-02T12:54:33.803Z,16.875
2018-09-02T12:55:50.576Z,16.875
2018-09-02T12:57:06.643Z,16.875
2018-09-02T12:58:22.718Z,16.875
2018-09-02T12:59:38.933Z,16.875
2018-09-02T13:00:55.629Z,16.875
2018-09-02T13:02:11.904Z,16.875
2018-09-02T13:03:27.999Z,16.875
2018-09-02T13:04:44.243Z,16.875
2018-09-02T13:06:00.331Z,16.875
2018-09-02T13:07:16.344Z,16.875
2018-09-02T13:08:32.628Z,16.875
2018-09-02T13:09:48.813Z,16.875
2018-09-02T13:11:06.724Z,22.5
2018-09-02T13:12:24.099Z,22.5
2018-09-02T13:13:40.485Z,22.5
2018-09-02T13:14:56.626Z,22.5
2018-09-02T13:16:12.650Z,16.875
2018-09-02T13:17:28.735Z,16.875
2018-09-02T13:18:44.766Z,16.875
2018-09-02T13:20:00.801Z,16.875
2018-09-02T13:24:13.614Z,16.875
2018-09-02T13:25:29.639Z,16.875
2018-09-02T13:26:45.661Z,16.875
2018-09-02T13:28:01.732Z,16.875
2018-09-02T13:29:17.881Z,16.875
2018-09-02T13:30:33.896Z,16.875
2018-09-02T13:31:49.951Z,16.875
2018-09-02T13:33:06.392Z,16.875
2018-09-02T13:34:22.416Z,16.875
2018-09-02T13:35:38.458Z,16.875
2018-09-02T13:36:54.493Z,16.875
2018-09-02T13:38:10.711Z,16.875
2018-09-02T13:39:26.733Z,16.875
2018-09-02T13:42:23.257Z,16.875
2018-09-02T13:43:39.482Z,22.5
2018-09-02T13:44:55.736Z,22.5
2018-09-02T13:46:11.759Z,22.5
2018-09-02T13:47:27.737Z,22.5
2018-09-02T13:48:43.784Z,22.5
2018-09-02T13:49:59.886Z,22.5
2018-09-02T13:51:16.009Z,22.5
2018-09-02T13:54:13.620Z,22.5
2018-09-02T13:55:29.661Z,22.5
2018-09-02T13:56:45.691Z,22.5
2018-09-02T13:58:01.772Z,22.5
2018-09-02T13:59:17.864Z,22.5
2018-09-02T14:00:34.069Z,22.5
2018-09-02T14:01:50.585Z,16.875
2018-09-02T14:03:06.634Z,16.875
2018-09-02T14:04:22.706Z,16.875
2018-09-02T14:05:38.753Z,16.875
2018-09-02T14:06:54.772Z,22.5
2018-09-02T14:09:51.663Z,22.5
2018-09-02T14:11:07.765Z,22.5
2018-09-02T14:12:23.754Z,22.5
2018-09-02T14:13:39.747Z,22.5
2018-09-02T14:14:55.754Z,22.5
2018-09-02T14:16:11.736Z,22.5
2018-09-02T14:17:27.797Z,22.5
2018-09-02T14:18:43.957Z,22.5
2018-09-02T14:20:00.007Z,22.5
2018-09-02T14:21:16.327Z,16.875
2018-09-02T14:22:32.424Z,22.5
2018-09-02T14:23:48.400Z,16.875
2018-09-02T14:25:04.408Z,16.875
2018-09-02T14:26:20.419Z,16.875
2018-09-02T14:27:36.446Z,22.5
2018-09-02T14:28:52.762Z,22.5
2018-09-02T14:30:08.756Z,22.5
2018-09-02T14:31:24.741Z,22.5
2018-09-02T14:34:22.580Z,28.125
2018-09-02T14:35:38.556Z,28.125
2018-09-02T14:36:54.575Z,28.125
2018-09-02T14:38:10.626Z,28.125
2018-09-02T14:39:26.831Z,28.125
2018-09-02T14:40:42.818Z,28.125
2018-09-02T14:41:59.038Z,28.125
2018-09-02T14:43:15.155Z,28.125
2018-09-02T14:44:31.235Z,28.125
2018-09-02T14:45:47.285Z,28.125
2018-09-02T14:47:03.536Z,28.125
2018-09-02T14:48:19.583Z,28.125
2018-09-02T14:49:35.667Z,28.125
2018-09-02T14:50:51.859Z,28.125
2018-09-02T14:52:07.811Z,22.5
2018-09-02T14:53:23.813Z,22.5
2018-09-02T14:54:39.787Z,22.5
2018-09-02T14:55:55.909Z,22.5
2018-09-02T14:57:11.988Z,22.5
2018-09-02T14:58:27.979Z,22.5
2018-09-02T14:59:43.978Z,22.5
2018-09-02T15:01:00.007Z,22.5
2018-09-02T15:02:15.991Z,22.5
2018-09-02T15:03:31.963Z,22.5
2018-09-02T15:04:47.963Z,22.5
2018-09-02T15:06:03.982Z,22.5
2018-09-02T15:07:20.061Z,22.5
2018-09-02T15:08:36.191Z,22.5
2018-09-02T15:09:52.631Z,22.5
2018-09-02T15:11:08.614Z,22.5
2018-09-02T15:12:24.614Z,22.5
2018-09-02T15:13:40.591Z,22.5
2018-09-02T15:14:56.609Z,22.5
2018-09-02T15:16:12.736Z,16.875
2018-09-02T15:17:28.795Z,16.875
2018-09-02T15:18:44.771Z,16.875
2018-09-02T15:20:00.726Z,16.875
2018-09-02T15:21:16.816Z,16.875
2018-09-02T15:22:32.768Z,16.875
2018-09-02T15:23:48.794Z,16.875
2018-09-02T15:25:04.779Z,16.875
2018-09-02T15:26:20.747Z,16.875
2018-09-02T15:27:36.740Z,16.875
2018-09-02T15:28:53.877Z,16.875
2018-09-02T15:30:09.882Z,16.875
2018-09-02T15:31:25.872Z,16.875
2018-09-02T15:32:41.852Z,16.875
2018-09-02T15:33:57.960Z,16.875
2018-09-02T15:35:14.054Z,16.875
2018-09-02T15:36:30.236Z,16.875
2018-09-02T15:37:46.219Z,22.5
2018-09-02T15:39:02.211Z,16.875
2018-09-02T15:40:18.262Z,16.875
2018-09-02T15:41:34.281Z,16.875
2018-09-02T15:42:50.274Z,16.875
2018-09-02T15:44:06.363Z,16.875
2018-09-02T15:45:22.281Z,16.875
2018-09-02T15:46:38.428Z,16.875
2018-09-02T15:47:54.449Z,16.875
2018-09-02T15:49:10.503Z,22.5
2018-09-02T15:50:26.587Z,22.5
2018-09-02T15:51:42.540Z,22.5
2018-09-02T15:52:58.530Z,22.5
2018-09-02T15:54:14.482Z,22.5
2018-09-02T15:55:30.497Z,22.5
2018-09-02T15:56:46.565Z,22.5
2018-09-02T15:58:02.556Z,22.5
2018-09-02T15:59:18.897Z,22.5
2018-09-02T16:00:36.006Z,22.5
2018-09-02T16:01:52.760Z,22.5
2018-09-02T16:03:08.761Z,22.5
2018-09-02T16:06:06.547Z,22.5
2018-09-02T16:07:22.527Z,22.5
2018-09-02T16:10:19.646Z,16.875
2018-09-02T16:11:35.622Z,22.5
2018-09-02T16:12:51.830Z,22.5
2018-09-02T16:14:07.922Z,22.5
2018-09-02T16:15:24.018Z,16.875
2018-09-02T16:16:40.091Z,16.875
2018-09-02T16:17:56.087Z,16.875
2018-09-02T16:19:12.172Z,11.25
2018-09-02T16:20:28.168Z,11.25
2018-09-02T16:21:44.236Z,11.25
2018-09-02T16:23:00.359Z,11.25
2018-09-02T16:24:16.382Z,11.25
2018-09-02T16:25:32.380Z,11.25
2018-09-02T16:26:48.485Z,11.25
2018-09-02T16:28:04.526Z,5.625
2018-09-02T16:29:20.717Z,5.625
2018-09-02T16:30:36.741Z,5.625
2018-09-02T16:31:52.722Z,5.625
2018-09-02T16:33:08.722Z,5.625
2018-09-02T16:34:24.707Z,5.625
2018-09-02T16:35:40.812Z,5.625
2018-09-02T16:36:56.756Z,5.625
2018-09-02T16:38:12.710Z,5.625
2018-09-02T16:39:28.706Z,5.625
2018-09-02T16:40:44.794Z,5.625
2018-09-02T16:42:00.848Z,5.625
2018-09-02T16:43:16.929Z,5.625
2018-09-02T16:44:33.057Z,5.625
2018-09-02T16:45:49.048Z,5.625
2018-09-02T16:47:05.080Z,5.625
2018-09-02T16:48:21.203Z,5.625
2018-09-02T16:49:37.273Z,0
2018-09-02T16:50:53.385Z,0
2018-09-02T16:52:09.434Z,0
2018-09-02T16:53:25.429Z,0
2018-09-02T16:54:41.452Z,0
2018-09-02T16:55:58.438Z,0
2018-09-02T16:57:14.547Z,0
2018-09-02T16:58:30.581Z,0
2018-09-02T16:59:46.579Z,0
2018-09-02T17:01:02.560Z,0
2018-09-02T17:02:18.702Z,0
2018-09-02T17:03:34.778Z,0
2018-09-02T17:04:50.798Z,0
2018-09-02T17:06:06.889Z,0
2018-09-02T17:07:22.935Z,0
2018-09-02T17:08:39.029Z,0
2018-09-02T17:09:55.150Z,0
2018-09-02T17:11:11.808Z,0
2018-09-02T17:12:27.839Z,0
2018-09-02T17:13:43.795Z,0
2018-09-02T17:14:59.738Z,0
2018-09-02T17:16:15.837Z,0
2018-09-02T17:17:31.848Z,0
2018-09-02T17:18:47.775Z,0
2018-09-02T17:20:03.733Z,0
2018-09-02T17:21:19.713Z,0
2018-09-02T17:22:35.654Z,0
2018-09-02T17:23:51.752Z,0
2018-09-02T17:25:08.514Z,0
2018-09-02T17:26:24.604Z,0
2018-09-02T17:27:40.644Z,0
2018-09-02T17:28:56.622Z,0
2018-09-02T17:30:12.619Z,0
2018-09-02T17:31:28.680Z,0
2018-09-02T17:32:44.651Z,0
2018-09-02T17:34:00.735Z,0
2018-09-02T17:35:16.721Z,0
2018-09-02T17:36:32.843Z,0
2018-09-02T17:37:48.860Z,0
2018-09-02T17:39:04.772Z,0
2018-09-02T17:40:20.724Z,0
2018-09-02T17:41:36.798Z,0
2018-09-02T17:42:52.827Z,0
2018-09-02T17:44:08.829Z,0
2018-09-02T17:45:24.782Z,0
2018-09-02T17:46:40.817Z,0
2018-09-02T17:49:37.380Z,0
2018-09-02T17:53:49.975Z,0
2018-09-02T17:55:05.927Z,0
2018-09-02T17:56:23.049Z,0
2018-09-02T17:57:39.119Z,0
2018-09-02T17:58:55.049Z,0
2018-09-02T18:00:11.136Z,0
2018-09-02T18:01:27.289Z,0
2018-09-02T18:02:43.324Z,0
2018-09-02T18:03:59.473Z,0
2018-09-02T18:05:15.706Z,0
2018-09-02T18:06:32.016Z,0
2018-09-02T18:09:28.768Z,0